sensor_id;sensor_type;location;lat;lon;timestamp;temperature;humidity
31765;DHT22;18338;53.240;8.798;2023-04-06T00:00:33;-0.10;99.90
31765;DHT22;18338;53.240;8.798;2023-04-06T00:03:00;-0.10;99.90
31765;DHT22;18338;53.240;8.798;2023-04-06T00:05:27;-0.10;99.90
31765;DHT22;18338;53.240;8.798;2023-04-06T00:07:59;-0.10;99.90
31765;DHT22;18338;53.240;8.798;2023-04-06T00:10:26;-0.20;99.90
31765;DHT22;18338;53.240;8.798;2023-04-06T00:12:54;-0.20;99.90
31765;DHT22;18338;53.240;8.798;2023-04-06T00:15:21;-0.30;99.90
31765;DHT22;18338;53.240;8.798;2023-04-06T00:17:48;-0.30;99.90
31765;DHT22;18338;53.240;8.798;2023-04-06T00:20:15;-0.40;99.90
31765;DHT22;18338;53.240;8.798;2023-04-06T00:22:44;-0.40;99.90
31765;DHT22;18338;53.240;8.798;2023-04-06T00:25:11;-0.30;99.90
31765;DHT22;18338;53.240;8.798;2023-04-06T00:27:38;-0.30;99.90
31765;DHT22;18338;53.240;8.798;2023-04-06T00:30:05;-0.30;99.90
31765;DHT22;18338;53.240;8.798;2023-04-06T00:32:33;-0.40;99.90
31765;DHT22;18338;53.240;8.798;2023-04-06T00:35:02;-0.40;99.90
31765;DHT22;18338;53.240;8.798;2023-04-06T00:37:29;-0.40;99.90
31765;DHT22;18338;53.240;8.798;2023-04-06T00:39:55;-0.40;99.90
31765;DHT22;18338;53.240;8.798;2023-04-06T00:42:23;-0.40;99.90
31765;DHT22;18338;53.240;8.798;2023-04-06T00:44:54;-0.40;99.90
31765;DHT22;18338;53.240;8.798;2023-04-06T00:47:22;-0.40;99.90
31765;DHT22;18338;53.240;8.798;2023-04-06T00:49:49;-0.40;99.90
31765;DHT22;18338;53.240;8.798;2023-04-06T00:52:16;-0.40;99.90
31765;DHT22;18338;53.240;8.798;2023-04-06T00:54:42;-0.30;99.90
31765;DHT22;18338;53.240;8.798;2023-04-06T00:57:11;-0.30;99.90
31765;DHT22;18338;53.240;8.798;2023-04-06T00:59:38;-0.20;99.90
31765;DHT22;18338;53.240;8.798;2023-04-06T01:02:05;-0.20;99.90
31765;DHT22;18338;53.240;8.798;2023-04-06T01:04:32;-0.20;99.90
31765;DHT22;18338;53.240;8.798;2023-04-06T01:06:59;-0.20;99.90
31765;DHT22;18338;53.240;8.798;2023-04-06T01:09:28;-0.20;99.90
31765;DHT22;18338;53.240;8.798;2023-04-06T01:11:56;-0.30;99.90
31765;DHT22;18338;53.240;8.798;2023-04-06T01:14:24;-0.30;99.90
31765;DHT22;18338;53.240;8.798;2023-04-06T01:16:51;-0.30;99.90
31765;DHT22;18338;53.240;8.798;2023-04-06T01:19:18;-0.30;99.90
31765;DHT22;18338;53.240;8.798;2023-04-06T01:21:45;-0.20;99.90
31765;DHT22;18338;53.240;8.798;2023-04-06T01:24:12;-0.20;99.90
31765;DHT22;18338;53.240;8.798;2023-04-06T01:26:38;-0.30;99.90
31765;DHT22;18338;53.240;8.798;2023-04-06T01:29:05;-0.30;99.90
31765;DHT22;18338;53.240;8.798;2023-04-06T01:31:32;-0.40;99.90
31765;DHT22;18338;53.240;8.798;2023-04-06T01:33:59;-0.50;99.90
31765;DHT22;18338;53.240;8.798;2023-04-06T01:36:26;-0.50;99.90
31765;DHT22;18338;53.240;8.798;2023-04-06T01:38:52;-0.50;99.90
31765;DHT22;18338;53.240;8.798;2023-04-06T01:41:19;-0.50;99.90
31765;DHT22;18338;53.240;8.798;2023-04-06T01:43:47;-0.60;99.90
31765;DHT22;18338;53.240;8.798;2023-04-06T01:46:15;-0.60;99.90
31765;DHT22;18338;53.240;8.798;2023-04-06T01:48:42;-0.60;99.90
31765;DHT22;18338;53.240;8.798;2023-04-06T01:51:08;-0.60;99.90
31765;DHT22;18338;53.240;8.798;2023-04-06T01:53:35;-0.60;99.90
31765;DHT22;18338;53.240;8.798;2023-04-06T01:56:01;-0.70;99.90
31765;DHT22;18338;53.240;8.798;2023-04-06T01:58:28;-0.70;99.90
31765;DHT22;18338;53.240;8.798;2023-04-06T02:00:55;-0.70;99.90
31765;DHT22;18338;53.240;8.798;2023-04-06T02:03:21;-0.60;99.90
31765;DHT22;18338;53.240;8.798;2023-04-06T02:05:48;-0.60;99.90
31765;DHT22;18338;53.240;8.798;2023-04-06T02:08:15;-0.60;99.90
31765;DHT22;18338;53.240;8.798;2023-04-06T02:10:41;-0.60;99.90
31765;DHT22;18338;53.240;8.798;2023-04-06T02:13:08;-0.70;99.90
31765;DHT22;18338;53.240;8.798;2023-04-06T02:15:35;-0.70;99.90
31765;DHT22;18338;53.240;8.798;2023-04-06T02:18:01;-0.60;99.90
31765;DHT22;18338;53.240;8.798;2023-04-06T02:20:28;-0.60;99.90
31765;DHT22;18338;53.240;8.798;2023-04-06T02:22:58;-0.60;99.90
31765;DHT22;18338;53.240;8.798;2023-04-06T02:25:24;-0.70;99.90
31765;DHT22;18338;53.240;8.798;2023-04-06T02:27:51;-0.60;99.90
31765;DHT22;18338;53.240;8.798;2023-04-06T02:30:18;-0.60;99.90
31765;DHT22;18338;53.240;8.798;2023-04-06T02:32:44;-0.50;99.90
31765;DHT22;18338;53.240;8.798;2023-04-06T02:35:11;-0.50;99.90
31765;DHT22;18338;53.240;8.798;2023-04-06T02:37:38;-0.50;99.90
31765;DHT22;18338;53.240;8.798;2023-04-06T02:40:05;-0.50;99.90
31765;DHT22;18338;53.240;8.798;2023-04-06T02:42:32;-0.50;99.90
31765;DHT22;18338;53.240;8.798;2023-04-06T02:44:59;-0.50;99.90
31765;DHT22;18338;53.240;8.798;2023-04-06T02:47:26;-0.60;99.90
31765;DHT22;18338;53.240;8.798;2023-04-06T02:49:52;-0.60;99.90
31765;DHT22;18338;53.240;8.798;2023-04-06T02:52:19;-0.70;99.90
31765;DHT22;18338;53.240;8.798;2023-04-06T02:54:46;-0.70;99.90
31765;DHT22;18338;53.240;8.798;2023-04-06T02:57:12;-0.80;99.90
31765;DHT22;18338;53.240;8.798;2023-04-06T02:59:39;-0.90;99.90
31765;DHT22;18338;53.240;8.798;2023-04-06T03:02:05;-0.90;99.90
31765;DHT22;18338;53.240;8.798;2023-04-06T03:04:32;-0.90;99.90
31765;DHT22;18338;53.240;8.798;2023-04-06T03:06:59;-0.90;99.90
31765;DHT22;18338;53.240;8.798;2023-04-06T03:09:27;-1.00;99.90
31765;DHT22;18338;53.240;8.798;2023-04-06T03:11:54;-1.00;99.90
31765;DHT22;18338;53.240;8.798;2023-04-06T03:14:21;-1.00;99.90
31765;DHT22;18338;53.240;8.798;2023-04-06T03:16:48;-0.90;99.90
31765;DHT22;18338;53.240;8.798;2023-04-06T03:19:15;-0.90;99.90
31765;DHT22;18338;53.240;8.798;2023-04-06T03:21:42;-1.00;99.90
31765;DHT22;18338;53.240;8.798;2023-04-06T03:24:08;-1.10;99.90
31765;DHT22;18338;53.240;8.798;2023-04-06T03:26:35;-1.10;99.90
31765;DHT22;18338;53.240;8.798;2023-04-06T03:29:02;-1.20;99.90
31765;DHT22;18338;53.240;8.798;2023-04-06T03:31:28;-1.10;99.90
31765;DHT22;18338;53.240;8.798;2023-04-06T03:33:55;-0.90;99.90
31765;DHT22;18338;53.240;8.798;2023-04-06T03:36:22;-0.70;99.90
31765;DHT22;18338;53.240;8.798;2023-04-06T03:38:48;-0.60;99.90
31765;DHT22;18338;53.240;8.798;2023-04-06T03:41:15;-0.80;99.90
31765;DHT22;18338;53.240;8.798;2023-04-06T03:43:42;-1.00;99.90
31765;DHT22;18338;53.240;8.798;2023-04-06T03:46:08;-1.10;99.90
31765;DHT22;18338;53.240;8.798;2023-04-06T03:48:35;-1.10;99.90
31765;DHT22;18338;53.240;8.798;2023-04-06T03:51:02;-1.20;99.90
31765;DHT22;18338;53.240;8.798;2023-04-06T03:53:29;-1.20;99.90
31765;DHT22;18338;53.240;8.798;2023-04-06T03:55:56;-1.20;99.90
31765;DHT22;18338;53.240;8.798;2023-04-06T03:58:22;-1.30;99.90
31765;DHT22;18338;53.240;8.798;2023-04-06T04:00:49;-1.30;99.90
31765;DHT22;18338;53.240;8.798;2023-04-06T04:03:15;-1.30;99.90
31765;DHT22;18338;53.240;8.798;2023-04-06T04:05:43;-1.30;99.90
31765;DHT22;18338;53.240;8.798;2023-04-06T04:08:09;-1.40;99.90
31765;DHT22;18338;53.240;8.798;2023-04-06T04:10:36;-1.50;99.90
31765;DHT22;18338;53.240;8.798;2023-04-06T04:13:02;-1.50;99.90
31765;DHT22;18338;53.240;8.798;2023-04-06T04:15:29;-1.60;99.90
31765;DHT22;18338;53.240;8.798;2023-04-06T04:17:56;-1.60;99.90
31765;DHT22;18338;53.240;8.798;2023-04-06T04:20:22;-1.60;99.90
31765;DHT22;18338;53.240;8.798;2023-04-06T04:22:49;-1.70;99.90
31765;DHT22;18338;53.240;8.798;2023-04-06T04:25:16;-1.70;99.90
31765;DHT22;18338;53.240;8.798;2023-04-06T04:27:42;-1.70;99.90
31765;DHT22;18338;53.240;8.798;2023-04-06T04:30:09;-1.70;99.90
31765;DHT22;18338;53.240;8.798;2023-04-06T04:32:36;-1.60;99.90
31765;DHT22;18338;53.240;8.798;2023-04-06T04:35:03;-1.60;99.90
31765;DHT22;18338;53.240;8.798;2023-04-06T04:37:30;-1.60;99.90
31765;DHT22;18338;53.240;8.798;2023-04-06T04:39:57;-1.70;99.90
31765;DHT22;18338;53.240;8.798;2023-04-06T04:42:24;-1.60;99.90
31765;DHT22;18338;53.240;8.798;2023-04-06T04:44:50;-1.60;99.90
31765;DHT22;18338;53.240;8.798;2023-04-06T04:47:17;-1.60;99.90
31765;DHT22;18338;53.240;8.798;2023-04-06T04:49:43;-1.60;99.90
31765;DHT22;18338;53.240;8.798;2023-04-06T04:52:10;-1.50;99.90
31765;DHT22;18338;53.240;8.798;2023-04-06T04:54:48;-1.50;99.90
31765;DHT22;18338;53.240;8.798;2023-04-06T04:57:15;-1.50;99.90
31765;DHT22;18338;53.240;8.798;2023-04-06T04:59:43;-1.60;99.90
31765;DHT22;18338;53.240;8.798;2023-04-06T05:02:09;-1.60;99.90
31765;DHT22;18338;53.240;8.798;2023-04-06T05:04:36;-1.60;99.90
31765;DHT22;18338;53.240;8.798;2023-04-06T05:07:13;-1.60;99.90
31765;DHT22;18338;53.240;8.798;2023-04-06T05:09:41;-1.60;99.90
31765;DHT22;18338;53.240;8.798;2023-04-06T05:12:08;-1.60;99.90
31765;DHT22;18338;53.240;8.798;2023-04-06T05:14:41;-1.60;99.90
31765;DHT22;18338;53.240;8.798;2023-04-06T05:17:08;-1.50;99.90
31765;DHT22;18338;53.240;8.798;2023-04-06T05:19:35;-1.50;99.90
31765;DHT22;18338;53.240;8.798;2023-04-06T05:22:02;-1.50;99.90
31765;DHT22;18338;53.240;8.798;2023-04-06T05:24:28;-1.50;99.90
31765;DHT22;18338;53.240;8.798;2023-04-06T05:26:58;-1.40;99.90
31765;DHT22;18338;53.240;8.798;2023-04-06T05:29:26;-1.30;99.90
31765;DHT22;18338;53.240;8.798;2023-04-06T05:31:56;-1.20;99.90
31765;DHT22;18338;53.240;8.798;2023-04-06T05:34:26;-1.20;99.90
31765;DHT22;18338;53.240;8.798;2023-04-06T05:37:01;-1.10;99.90
31765;DHT22;18338;53.240;8.798;2023-04-06T05:39:39;-1.10;99.90
31765;DHT22;18338;53.240;8.798;2023-04-06T05:42:05;-1.10;99.90
31765;DHT22;18338;53.240;8.798;2023-04-06T05:44:42;-1.00;99.90
31765;DHT22;18338;53.240;8.798;2023-04-06T05:47:24;-1.00;99.90
31765;DHT22;18338;53.240;8.798;2023-04-06T05:49:54;-0.90;99.90
31765;DHT22;18338;53.240;8.798;2023-04-06T05:52:21;-0.70;99.90
31765;DHT22;18338;53.240;8.798;2023-04-06T05:54:47;-0.70;99.90
31765;DHT22;18338;53.240;8.798;2023-04-06T05:57:14;-0.60;99.90
31765;DHT22;18338;53.240;8.798;2023-04-06T05:59:41;-0.50;99.90
31765;DHT22;18338;53.240;8.798;2023-04-06T06:02:08;-0.40;99.90
31765;DHT22;18338;53.240;8.798;2023-04-06T06:04:35;-0.30;99.90
31765;DHT22;18338;53.240;8.798;2023-04-06T06:07:01;-0.30;99.90
31765;DHT22;18338;53.240;8.798;2023-04-06T06:09:29;-0.20;99.90
31765;DHT22;18338;53.240;8.798;2023-04-06T06:11:55;0.00;99.90
31765;DHT22;18338;53.240;8.798;2023-04-06T06:14:22;0.00;99.90
31765;DHT22;18338;53.240;8.798;2023-04-06T06:16:49;0.10;99.90
31765;DHT22;18338;53.240;8.798;2023-04-06T06:19:15;0.20;99.90
31765;DHT22;18338;53.240;8.798;2023-04-06T06:21:42;0.30;99.90
31765;DHT22;18338;53.240;8.798;2023-04-06T06:24:08;0.40;99.90
31765;DHT22;18338;53.240;8.798;2023-04-06T06:26:36;0.50;99.90
31765;DHT22;18338;53.240;8.798;2023-04-06T06:29:03;0.60;99.90
31765;DHT22;18338;53.240;8.798;2023-04-06T06:31:32;0.70;99.90
31765;DHT22;18338;53.240;8.798;2023-04-06T06:33:58;0.80;99.90
31765;DHT22;18338;53.240;8.798;2023-04-06T06:36:25;0.80;99.90
31765;DHT22;18338;53.240;8.798;2023-04-06T06:38:52;0.90;99.90
31765;DHT22;18338;53.240;8.798;2023-04-06T06:41:19;1.00;99.90
31765;DHT22;18338;53.240;8.798;2023-04-06T06:43:45;1.10;99.90
31765;DHT22;18338;53.240;8.798;2023-04-06T06:46:12;1.30;99.90
31765;DHT22;18338;53.240;8.798;2023-04-06T06:48:39;1.30;99.90
31765;DHT22;18338;53.240;8.798;2023-04-06T06:51:06;1.40;99.90
31765;DHT22;18338;53.240;8.798;2023-04-06T06:53:32;1.50;99.90
31765;DHT22;18338;53.240;8.798;2023-04-06T06:55:59;1.60;99.90
31765;DHT22;18338;53.240;8.798;2023-04-06T06:58:25;1.60;99.90
31765;DHT22;18338;53.240;8.798;2023-04-06T07:00:59;1.70;99.90
31765;DHT22;18338;53.240;8.798;2023-04-06T07:03:26;1.80;99.90
31765;DHT22;18338;53.240;8.798;2023-04-06T07:05:53;1.80;99.90
31765;DHT22;18338;53.240;8.798;2023-04-06T07:08:21;2.00;99.90
31765;DHT22;18338;53.240;8.798;2023-04-06T07:10:49;2.10;99.90
31765;DHT22;18338;53.240;8.798;2023-04-06T07:13:16;2.20;99.90
31765;DHT22;18338;53.240;8.798;2023-04-06T07:15:51;2.30;99.90
31765;DHT22;18338;53.240;8.798;2023-04-06T07:18:18;2.40;99.90
31765;DHT22;18338;53.240;8.798;2023-04-06T07:20:45;2.60;99.90
31765;DHT22;18338;53.240;8.798;2023-04-06T07:23:12;2.80;99.90
31765;DHT22;18338;53.240;8.798;2023-04-06T07:25:39;2.90;99.90
31765;DHT22;18338;53.240;8.798;2023-04-06T07:28:06;3.00;99.90
31765;DHT22;18338;53.240;8.798;2023-04-06T07:30:32;3.10;99.90
31765;DHT22;18338;53.240;8.798;2023-04-06T07:33:02;3.30;99.90
31765;DHT22;18338;53.240;8.798;2023-04-06T07:35:29;3.40;99.90
31765;DHT22;18338;53.240;8.798;2023-04-06T07:37:57;3.60;99.90
31765;DHT22;18338;53.240;8.798;2023-04-06T07:40:23;3.90;99.90
31765;DHT22;18338;53.240;8.798;2023-04-06T07:42:50;4.10;99.90
31765;DHT22;18338;53.240;8.798;2023-04-06T07:45:17;4.20;99.90
31765;DHT22;18338;53.240;8.798;2023-04-06T07:47:43;4.40;99.90
31765;DHT22;18338;53.240;8.798;2023-04-06T07:50:11;4.60;99.90
31765;DHT22;18338;53.240;8.798;2023-04-06T07:52:38;4.80;99.90
31765;DHT22;18338;53.240;8.798;2023-04-06T07:55:05;5.00;99.90
31765;DHT22;18338;53.240;8.798;2023-04-06T07:57:32;5.20;99.90
31765;DHT22;18338;53.240;8.798;2023-04-06T07:59:59;5.30;99.90
31765;DHT22;18338;53.240;8.798;2023-04-06T08:02:26;5.50;99.90
31765;DHT22;18338;53.240;8.798;2023-04-06T08:04:53;5.70;99.90
31765;DHT22;18338;53.240;8.798;2023-04-06T08:07:19;5.90;99.90
31765;DHT22;18338;53.240;8.798;2023-04-06T08:09:46;6.10;99.90
31765;DHT22;18338;53.240;8.798;2023-04-06T08:12:13;6.30;99.90
31765;DHT22;18338;53.240;8.798;2023-04-06T08:14:40;6.50;99.90
31765;DHT22;18338;53.240;8.798;2023-04-06T08:17:07;6.70;99.90
31765;DHT22;18338;53.240;8.798;2023-04-06T08:19:33;6.70;99.90
31765;DHT22;18338;53.240;8.798;2023-04-06T08:22:00;6.70;99.90
31765;DHT22;18338;53.240;8.798;2023-04-06T08:24:26;6.90;99.90
31765;DHT22;18338;53.240;8.798;2023-04-06T08:26:53;7.10;99.90
31765;DHT22;18338;53.240;8.798;2023-04-06T08:29:19;7.30;99.90
31765;DHT22;18338;53.240;8.798;2023-04-06T08:31:46;7.40;99.90
31765;DHT22;18338;53.240;8.798;2023-04-06T08:34:13;7.50;99.90
31765;DHT22;18338;53.240;8.798;2023-04-06T08:36:41;7.70;99.90
31765;DHT22;18338;53.240;8.798;2023-04-06T08:39:08;8.80;99.90
31765;DHT22;18338;53.240;8.798;2023-04-06T08:41:34;11.20;99.90
31765;DHT22;18338;53.240;8.798;2023-04-06T08:44:02;13.10;99.90
31765;DHT22;18338;53.240;8.798;2023-04-06T08:46:30;15.40;97.40
31765;DHT22;18338;53.240;8.798;2023-04-06T08:49:01;16.80;90.50
31765;DHT22;18338;53.240;8.798;2023-04-06T08:51:29;18.00;86.90
31765;DHT22;18338;53.240;8.798;2023-04-06T08:53:58;19.00;78.90
31765;DHT22;18338;53.240;8.798;2023-04-06T08:56:26;17.90;71.80
31765;DHT22;18338;53.240;8.798;2023-04-06T08:58:53;16.50;73.70
31765;DHT22;18338;53.240;8.798;2023-04-06T09:01:25;16.30;76.10
31765;DHT22;18338;53.240;8.798;2023-04-06T09:03:57;17.90;74.90
31765;DHT22;18338;53.240;8.798;2023-04-06T09:06:25;19.00;70.60
31765;DHT22;18338;53.240;8.798;2023-04-06T09:08:54;17.20;69.70
31765;DHT22;18338;53.240;8.798;2023-04-06T09:11:21;17.10;69.40
31765;DHT22;18338;53.240;8.798;2023-04-06T09:13:53;16.80;70.70
31765;DHT22;18338;53.240;8.798;2023-04-06T09:16:21;18.70;71.30
31765;DHT22;18338;53.240;8.798;2023-04-06T09:18:48;20.00;68.30
31765;DHT22;18338;53.240;8.798;2023-04-06T09:21:19;20.30;65.40
31765;DHT22;18338;53.240;8.798;2023-04-06T09:23:58;20.70;62.10
31765;DHT22;18338;53.240;8.798;2023-04-06T09:26:25;18.40;62.50
31765;DHT22;18338;53.240;8.798;2023-04-06T09:28:55;17.10;64.70
31765;DHT22;18338;53.240;8.798;2023-04-06T09:31:30;17.80;66.60
31765;DHT22;18338;53.240;8.798;2023-04-06T09:33:59;18.80;64.80
31765;DHT22;18338;53.240;8.798;2023-04-06T09:36:31;18.30;63.90
31765;DHT22;18338;53.240;8.798;2023-04-06T09:38:59;18.00;63.90
31765;DHT22;18338;53.240;8.798;2023-04-06T09:41:32;18.40;65.90
31765;DHT22;18338;53.240;8.798;2023-04-06T09:46:41;20.10;64.50
31765;DHT22;18338;53.240;8.798;2023-04-06T09:49:28;21.80;63.60
31765;DHT22;18338;53.240;8.798;2023-04-06T09:52:02;21.40;60.70
31765;DHT22;18338;53.240;8.798;2023-04-06T09:54:30;21.90;59.90
31765;DHT22;18338;53.240;8.798;2023-04-06T09:57:23;22.70;58.90
31765;DHT22;18338;53.240;8.798;2023-04-06T10:00:05;22.10;58.40
31765;DHT22;18338;53.240;8.798;2023-04-06T10:05:55;20.80;60.50
31765;DHT22;18338;53.240;8.798;2023-04-06T10:08:27;23.50;58.90
31765;DHT22;18338;53.240;8.798;2023-04-06T10:10:58;24.30;56.00
31765;DHT22;18338;53.240;8.798;2023-04-06T10:13:25;24.50;54.30
31765;DHT22;18338;53.240;8.798;2023-04-06T10:15:52;24.60;55.90
31765;DHT22;18338;53.240;8.798;2023-04-06T10:18:19;24.60;54.70
31765;DHT22;18338;53.240;8.798;2023-04-06T10:20:55;24.50;54.80
31765;DHT22;18338;53.240;8.798;2023-04-06T10:23:26;25.60;54.40
31765;DHT22;18338;53.240;8.798;2023-04-06T10:26:01;25.40;53.30
31765;DHT22;18338;53.240;8.798;2023-04-06T10:28:32;25.20;53.90
31765;DHT22;18338;53.240;8.798;2023-04-06T10:31:03;27.00;54.40
31765;DHT22;18338;53.240;8.798;2023-04-06T10:33:30;26.00;51.60
31765;DHT22;18338;53.240;8.798;2023-04-06T10:35:58;25.40;53.10
31765;DHT22;18338;53.240;8.798;2023-04-06T10:38:35;23.70;52.70
31765;DHT22;18338;53.240;8.798;2023-04-06T10:41:08;23.00;55.60
31765;DHT22;18338;53.240;8.798;2023-04-06T10:43:40;24.10;54.40
31765;DHT22;18338;53.240;8.798;2023-04-06T10:46:08;22.70;54.30
31765;DHT22;18338;53.240;8.798;2023-04-06T10:48:40;22.10;55.70
31765;DHT22;18338;53.240;8.798;2023-04-06T10:51:14;23.90;57.00
31765;DHT22;18338;53.240;8.798;2023-04-06T10:53:45;24.30;53.70
31765;DHT22;18338;53.240;8.798;2023-04-06T10:56:17;24.10;54.20
31765;DHT22;18338;53.240;8.798;2023-04-06T10:58:52;22.80;53.90
31765;DHT22;18338;53.240;8.798;2023-04-06T11:01:21;22.50;55.30
31765;DHT22;18338;53.240;8.798;2023-04-06T11:03:52;21.80;55.40
31765;DHT22;18338;53.240;8.798;2023-04-06T11:06:24;21.60;55.90
31765;DHT22;18338;53.240;8.798;2023-04-06T11:08:52;22.60;56.50
31765;DHT22;18338;53.240;8.798;2023-04-06T11:11:21;24.80;55.20
31765;DHT22;18338;53.240;8.798;2023-04-06T11:13:51;25.40;54.00
31765;DHT22;18338;53.240;8.798;2023-04-06T11:16:19;25.80;51.60
31765;DHT22;18338;53.240;8.798;2023-04-06T11:21:30;22.60;54.30
31765;DHT22;18338;53.240;8.798;2023-04-06T11:24:17;22.10;55.10
31765;DHT22;18338;53.240;8.798;2023-04-06T11:26:46;22.90;57.20
31765;DHT22;18338;53.240;8.798;2023-04-06T11:29:26;24.60;54.80
31765;DHT22;18338;53.240;8.798;2023-04-06T11:31:58;24.30;54.20
31765;DHT22;18338;53.240;8.798;2023-04-06T11:34:25;24.40;52.90
31765;DHT22;18338;53.240;8.798;2023-04-06T11:36:57;24.30;53.70
31765;DHT22;18338;53.240;8.798;2023-04-06T11:39:25;23.30;52.50
31765;DHT22;18338;53.240;8.798;2023-04-06T11:41:55;21.80;55.70
31765;DHT22;18338;53.240;8.798;2023-04-06T11:44:36;23.80;54.60
31765;DHT22;18338;53.240;8.798;2023-04-06T11:47:04;25.10;52.80
31765;DHT22;18338;53.240;8.798;2023-04-06T11:49:32;24.60;52.70
31765;DHT22;18338;53.240;8.798;2023-04-06T11:52:00;24.60;54.70
31765;DHT22;18338;53.240;8.798;2023-04-06T11:54:36;24.00;53.30
31765;DHT22;18338;53.240;8.798;2023-04-06T11:57:04;23.30;54.50
31765;DHT22;18338;53.240;8.798;2023-04-06T11:59:32;23.80;54.60
31765;DHT22;18338;53.240;8.798;2023-04-06T12:02:01;25.20;53.90
31765;DHT22;18338;53.240;8.798;2023-04-06T12:04:28;25.10;51.70
31765;DHT22;18338;53.240;8.798;2023-04-06T12:06:55;24.20;53.40
31765;DHT22;18338;53.240;8.798;2023-04-06T12:09:22;24.80;52.60
31765;DHT22;18338;53.240;8.798;2023-04-06T12:11:48;22.70;52.40
31765;DHT22;18338;53.240;8.798;2023-04-06T12:14:15;22.90;54.40
31765;DHT22;18338;53.240;8.798;2023-04-06T12:16:42;22.70;54.60
31765;DHT22;18338;53.240;8.798;2023-04-06T12:19:09;24.80;53.10
31765;DHT22;18338;53.240;8.798;2023-04-06T12:21:36;24.40;53.40
31765;DHT22;18338;53.240;8.798;2023-04-06T12:24:04;22.60;53.20
31765;DHT22;18338;53.240;8.798;2023-04-06T12:26:32;22.00;53.50
31765;DHT22;18338;53.240;8.798;2023-04-06T12:28:59;22.20;53.20
31765;DHT22;18338;53.240;8.798;2023-04-06T12:31:36;22.60;54.40
31765;DHT22;18338;53.240;8.798;2023-04-06T12:34:04;24.00;53.60
31765;DHT22;18338;53.240;8.798;2023-04-06T12:36:31;23.40;52.00
31765;DHT22;18338;53.240;8.798;2023-04-06T12:38:58;23.20;52.20
31765;DHT22;18338;53.240;8.798;2023-04-06T12:41:25;22.50;51.80
31765;DHT22;18338;53.240;8.798;2023-04-06T12:43:52;23.00;52.40
31765;DHT22;18338;53.240;8.798;2023-04-06T12:46:19;21.30;52.00
31765;DHT22;18338;53.240;8.798;2023-04-06T12:48:46;22.10;53.10
31765;DHT22;18338;53.240;8.798;2023-04-06T12:51:12;22.90;52.00
31765;DHT22;18338;53.240;8.798;2023-04-06T12:53:39;23.10;50.90
31765;DHT22;18338;53.240;8.798;2023-04-06T12:56:16;24.30;52.20
31765;DHT22;18338;53.240;8.798;2023-04-06T12:58:44;24.30;50.40
31765;DHT22;18338;53.240;8.798;2023-04-06T13:01:11;23.60;50.00
31765;DHT22;18338;53.240;8.798;2023-04-06T13:03:40;22.60;50.80
31765;DHT22;18338;53.240;8.798;2023-04-06T13:06:07;22.70;52.00
31765;DHT22;18338;53.240;8.798;2023-04-06T13:08:37;23.10;53.00
31765;DHT22;18338;53.240;8.798;2023-04-06T13:11:05;24.60;51.50
31765;DHT22;18338;53.240;8.798;2023-04-06T13:13:31;23.80;51.10
31765;DHT22;18338;53.240;8.798;2023-04-06T13:16:07;23.70;50.10
31765;DHT22;18338;53.240;8.798;2023-04-06T13:18:34;23.40;50.10
31765;DHT22;18338;53.240;8.798;2023-04-06T13:21:01;24.00;51.00
31765;DHT22;18338;53.240;8.798;2023-04-06T13:23:28;23.60;50.30
31765;DHT22;18338;53.240;8.798;2023-04-06T13:26:06;23.60;50.80
31765;DHT22;18338;53.240;8.798;2023-04-06T13:28:34;23.50;50.70
31765;DHT22;18338;53.240;8.798;2023-04-06T13:31:02;22.50;51.00
31765;DHT22;18338;53.240;8.798;2023-04-06T13:33:29;21.90;51.80
31765;DHT22;18338;53.240;8.798;2023-04-06T13:35:57;22.20;52.60
31765;DHT22;18338;53.240;8.798;2023-04-06T13:38:24;22.30;50.20
31765;DHT22;18338;53.240;8.798;2023-04-06T13:40:51;21.80;51.30
31765;DHT22;18338;53.240;8.798;2023-04-06T13:43:18;23.10;52.30
31765;DHT22;18338;53.240;8.798;2023-04-06T13:45:50;24.30;49.40
31765;DHT22;18338;53.240;8.798;2023-04-06T13:48:18;24.40;49.60
31765;DHT22;18338;53.240;8.798;2023-04-06T13:50:45;24.40;48.70
31765;DHT22;18338;53.240;8.798;2023-04-06T13:53:12;24.20;48.70
31765;DHT22;18338;53.240;8.798;2023-04-06T13:55:39;23.60;50.00
31765;DHT22;18338;53.240;8.798;2023-04-06T13:58:06;23.00;50.40
31765;DHT22;18338;53.240;8.798;2023-04-06T14:00:32;22.70;50.20
31765;DHT22;18338;53.240;8.798;2023-04-06T14:02:59;21.90;50.10
31765;DHT22;18338;53.240;8.798;2023-04-06T14:05:30;22.80;50.20
31765;DHT22;18338;53.240;8.798;2023-04-06T14:07:56;22.00;50.00
31765;DHT22;18338;53.240;8.798;2023-04-06T14:10:23;23.00;49.80
31765;DHT22;18338;53.240;8.798;2023-04-06T14:12:53;23.10;49.50
31765;DHT22;18338;53.240;8.798;2023-04-06T14:15:19;23.60;51.40
31765;DHT22;18338;53.240;8.798;2023-04-06T14:17:48;24.30;50.30
31765;DHT22;18338;53.240;8.798;2023-04-06T14:20:15;24.80;49.90
31765;DHT22;18338;53.240;8.798;2023-04-06T14:22:42;24.00;48.40
31765;DHT22;18338;53.240;8.798;2023-04-06T14:25:09;23.90;49.70
31765;DHT22;18338;53.240;8.798;2023-04-06T14:27:37;24.00;49.80
31765;DHT22;18338;53.240;8.798;2023-04-06T14:30:04;24.80;49.30
31765;DHT22;18338;53.240;8.798;2023-04-06T14:32:31;24.80;50.00
31765;DHT22;18338;53.240;8.798;2023-04-06T14:34:58;24.70;48.20
31765;DHT22;18338;53.240;8.798;2023-04-06T14:37:25;22.60;48.80
31765;DHT22;18338;53.240;8.798;2023-04-06T14:39:52;21.70;51.10
31765;DHT22;18338;53.240;8.798;2023-04-06T14:42:19;21.60;51.20
31765;DHT22;18338;53.240;8.798;2023-04-06T14:44:45;22.10;50.90
31765;DHT22;18338;53.240;8.798;2023-04-06T14:47:12;23.00;51.20
31765;DHT22;18338;53.240;8.798;2023-04-06T14:49:42;23.20;49.90
31765;DHT22;18338;53.240;8.798;2023-04-06T14:52:08;22.00;49.90
31765;DHT22;18338;53.240;8.798;2023-04-06T14:54:35;22.10;52.70
31765;DHT22;18338;53.240;8.798;2023-04-06T14:57:01;21.20;52.30
31765;DHT22;18338;53.240;8.798;2023-04-06T14:59:28;20.40;53.30
31765;DHT22;18338;53.240;8.798;2023-04-06T15:02:01;19.50;52.40
31765;DHT22;18338;53.240;8.798;2023-04-06T15:04:28;18.70;54.00
31765;DHT22;18338;53.240;8.798;2023-04-06T15:06:56;18.60;55.80
31765;DHT22;18338;53.240;8.798;2023-04-06T15:09:22;18.50;55.10
31765;DHT22;18338;53.240;8.798;2023-04-06T15:11:49;18.60;56.80
31765;DHT22;18338;53.240;8.798;2023-04-06T15:14:16;18.70;56.40
31765;DHT22;18338;53.240;8.798;2023-04-06T15:16:43;18.10;55.40
31765;DHT22;18338;53.240;8.798;2023-04-06T15:19:09;17.60;56.70
31765;DHT22;18338;53.240;8.798;2023-04-06T15:21:37;17.30;57.50
31765;DHT22;18338;53.240;8.798;2023-04-06T15:24:03;17.30;56.90
31765;DHT22;18338;53.240;8.798;2023-04-06T15:26:33;17.60;56.30
31765;DHT22;18338;53.240;8.798;2023-04-06T15:29:00;17.60;55.50
31765;DHT22;18338;53.240;8.798;2023-04-06T15:31:27;18.30;56.50
31765;DHT22;18338;53.240;8.798;2023-04-06T15:34:03;18.80;56.00
31765;DHT22;18338;53.240;8.798;2023-04-06T15:36:30;18.60;55.10
31765;DHT22;18338;53.240;8.798;2023-04-06T15:38:57;18.20;55.70
31765;DHT22;18338;53.240;8.798;2023-04-06T15:41:24;18.20;56.70
31765;DHT22;18338;53.240;8.798;2023-04-06T15:43:54;19.30;56.40
31765;DHT22;18338;53.240;8.798;2023-04-06T15:46:22;19.80;55.00